Time;durP1;ratioP1;P1;durP2;ratioP2;P2;SDS_P1;SDS_P2;PMS_P1;PMS_P2;Temp;Humidity;BMP_temperature;BMP_pressure;BME280_temperature;BME280_humidity;BME280_pressure;Samples;Min_cycle;Max_cycle;Signal;HPM_P1;HPM_P2
2023/04/16 00:02:02;;;;;;;33.95;30.77;;;21.50;99.90;;;;;;5154140;28;20057;-73
2023/04/16 00:04:34;;;;;;;33.15;29.83;;;21.50;99.90;;;;;;5152658;28;20022;-74
2023/04/16 00:07:06;;;;;;;32.25;29.33;;;21.50;99.90;;;;;;5161643;28;20026;-73
2023/04/16 00:09:38;;;;;;;31.00;28.25;;;21.50;99.90;;;;;;5155405;28;20081;-73
2023/04/16 00:12:10;;;;;;;31.35;28.65;;;21.40;99.90;;;;;;5150447;28;20035;-72
2023/04/16 00:14:42;;;;;;;32.67;29.67;;;21.40;99.90;;;;;;5155780;28;20113;-72
2023/04/16 00:17:13;;;;;;;33.42;30.45;;;21.40;99.90;;;;;;5157434;28;20035;-72
2023/04/16 00:19:45;;;;;;;33.60;30.52;;;21.40;99.90;;;;;;5162610;28;20031;-73
2023/04/16 00:22:16;;;;;;;31.50;28.63;;;21.40;99.90;;;;;;5151931;28;20049;-73
2023/04/16 00:24:47;;;;;;;33.92;31.00;;;21.40;99.90;;;;;;5155172;28;20019;-73
2023/04/16 00:27:19;;;;;;;31.90;29.17;;;21.30;99.90;;;;;;5163299;28;20027;-73
2023/04/16 00:29:49;;;;;;;31.83;29.08;;;21.30;99.90;;;;;;5182237;28;20120;-73
2023/04/16 00:32:20;;;;;;;33.95;30.92;;;21.30;99.90;;;;;;5171099;28;20105;-73
2023/04/16 00:34:51;;;;;;;33.25;30.42;;;21.30;99.90;;;;;;5165323;28;20038;-74
2023/04/16 00:37:22;;;;;;;35.63;32.63;;;21.20;99.90;;;;;;5163487;28;20038;-73
2023/04/16 00:39:53;;;;;;;34.22;31.63;;;21.20;99.90;;;;;;5165483;28;20072;-73
2023/04/16 00:42:24;;;;;;;34.03;31.23;;;21.20;99.90;;;;;;5165352;28;20033;-73
2023/04/16 00:44:55;;;;;;;33.10;30.30;;;21.20;99.90;;;;;;5152494;28;20027;-73
2023/04/16 00:47:26;;;;;;;32.67;29.90;;;21.10;99.90;;;;;;5157055;28;20085;-74
2023/04/16 00:49:57;;;;;;;30.88;28.38;;;21.10;99.90;;;;;;5165058;28;20026;-73
2023/04/16 00:52:30;;;;;;;30.42;28.00;;;21.10;99.90;;;;;;5151695;28;20062;-73
2023/04/16 00:55:01;;;;;;;30.08;27.58;;;21.10;99.90;;;;;;5145127;28;20099;-73
2023/04/16 00:57:35;;;;;;;30.65;28.10;;;21.10;99.90;;;;;;5159640;28;20038;-74
2023/04/16 01:00:09;;;;;;;31.02;28.52;;;21.10;99.90;;;;;;5165053;28;20018;-74
2023/04/16 01:02:40;;;;;;;29.98;27.50;;;21.00;99.90;;;;;;5164571;28;20030;-73
2023/04/16 01:05:11;;;;;;;29.90;27.40;;;21.00;99.90;;;;;;5175405;28;20026;-73
2023/04/16 01:07:42;;;;;;;30.48;27.98;;;21.00;99.90;;;;;;5167311;28;20031;-73
2023/04/16 01:10:13;;;;;;;30.42;27.70;;;21.00;99.90;;;;;;5164300;28;20359;-76
2023/04/16 01:12:44;;;;;;;31.02;28.42;;;21.00;99.90;;;;;;5165151;28;20034;-79
2023/04/16 01:15:15;;;;;;;30.38;27.88;;;21.00;99.90;;;;;;5164823;28;20113;-72
2023/04/16 01:17:46;;;;;;;29.27;26.88;;;20.90;99.90;;;;;;5164455;28;20122;-75
2023/04/16 01:20:17;;;;;;;28.80;26.45;;;20.90;99.90;;;;;;5164343;28;20026;-75
2023/04/16 01:22:48;;;;;;;28.50;25.80;;;20.90;99.90;;;;;;5163393;28;20807;-74
2023/04/16 01:25:19;;;;;;;28.60;26.40;;;20.90;99.90;;;;;;5164195;28;20031;-72
2023/04/16 01:27:51;;;;;;;31.92;29.42;;;20.90;99.90;;;;;;5164860;28;20026;-73
2023/04/16 01:30:22;;;;;;;32.30;29.80;;;20.90;99.90;;;;;;5163692;28;20470;-74
2023/04/16 01:32:52;;;;;;;31.27;28.88;;;20.90;99.90;;;;;;5163428;28;20034;-74
2023/04/16 01:35:24;;;;;;;30.08;27.77;;;20.80;99.90;;;;;;5163926;28;20031;-77
2023/04/16 01:37:55;;;;;;;28.30;26.10;;;20.80;99.90;;;;;;5165204;28;20501;-76
2023/04/16 01:40:26;;;;;;;29.40;27.17;;;20.80;99.90;;;;;;5163822;28;20057;-76
2023/04/16 01:42:56;;;;;;;31.20;28.70;;;20.80;99.90;;;;;;5165011;28;20026;-76
2023/04/16 01:45:27;;;;;;;28.95;26.73;;;20.70;99.90;;;;;;5164586;28;20073;-76
2023/04/16 01:47:59;;;;;;;30.23;27.90;;;20.70;99.90;;;;;;5165023;28;20026;-76
2023/04/16 01:50:30;;;;;;;28.65;26.45;;;20.70;99.90;;;;;;5164743;28;20124;-74
2023/04/16 01:53:03;;;;;;;29.38;26.70;;;20.60;99.90;;;;;;5144624;28;20055;-75
2023/04/16 01:55:34;;;;;;;28.55;26.40;;;20.60;99.90;;;;;;5162737;28;20056;-75
2023/04/16 01:58:09;;;;;;;29.95;27.77;;;20.60;99.90;;;;;;5164747;28;20482;-76
2023/04/16 02:00:40;;;;;;;28.30;26.30;;;20.70;99.90;;;;;;5167101;28;20030;-73
2023/04/16 02:03:11;;;;;;;28.75;26.38;;;20.70;99.90;;;;;;5168085;28;20030;-75
2023/04/16 02:05:41;;;;;;;28.85;26.65;;;20.60;99.90;;;;;;5169106;28;20018;-75
2023/04/16 02:08:12;;;;;;;28.95;26.85;;;20.60;99.90;;;;;;5188402;28;20440;-73
2023/04/16 02:10:47;;;;;;;28.63;26.52;;;20.60;99.90;;;;;;5188421;28;20484;-74
2023/04/16 02:13:18;;;;;;;28.58;26.55;;;20.60;99.90;;;;;;5186949;28;20520;-74
2023/04/16 02:15:49;;;;;;;27.42;25.25;;;20.60;99.90;;;;;;5170800;28;20042;-73
2023/04/16 02:18:20;;;;;;;27.63;25.40;;;20.60;99.90;;;;;;5167981;28;20025;-74
2023/04/16 02:20:51;;;;;;;27.23;25.23;;;20.50;99.90;;;;;;5167195;28;20363;-74
2023/04/16 02:23:22;;;;;;;28.63;26.63;;;20.50;99.90;;;;;;5166363;28;20040;-74
2023/04/16 02:25:53;;;;;;;28.13;26.02;;;20.50;99.90;;;;;;5167880;28;20022;-74
2023/04/16 02:28:24;;;;;;;27.15;24.95;;;20.60;99.90;;;;;;5174975;28;20030;-76
2023/04/16 02:30:54;;;;;;;27.40;25.25;;;20.50;99.90;;;;;;5166612;28;20023;-75
2023/04/16 02:33:25;;;;;;;28.33;26.08;;;20.50;99.90;;;;;;5167563;28;20022;-75
2023/04/16 02:35:56;;;;;;;29.08;27.02;;;20.50;99.90;;;;;;5167200;28;20450;-78
2023/04/16 02:38:27;;;;;;;28.25;26.02;;;20.50;99.90;;;;;;5167708;28;20057;-78
2023/04/16 02:40:58;;;;;;;27.88;25.85;;;20.40;99.90;;;;;;5161819;28;20473;-78
2023/04/16 02:43:29;;;;;;;27.75;25.35;;;20.40;99.90;;;;;;5162565;28;20062;-77
2023/04/16 02:46:00;;;;;;;25.70;23.60;;;20.40;99.90;;;;;;5147451;28;20113;-76
2023/04/16 02:48:30;;;;;;;28.63;26.42;;;20.40;99.90;;;;;;5147513;28;20050;-74
2023/04/16 02:51:01;;;;;;;27.52;25.42;;;20.40;99.90;;;;;;5151452;28;20078;-76
2023/04/16 02:53:32;;;;;;;24.20;22.48;;;20.40;99.90;;;;;;5166363;28;20034;-76
2023/04/16 02:56:03;;;;;;;24.63;22.85;;;20.30;99.90;;;;;;5165920;28;20057;-76
2023/04/16 02:58:34;;;;;;;26.42;24.42;;;20.30;99.90;;;;;;5167297;28;20049;-76
2023/04/16 03:01:05;;;;;;;23.92;22.23;;;20.30;99.90;;;;;;5166478;28;20493;-73
2023/04/16 03:03:36;;;;;;;26.65;24.75;;;20.30;99.90;;;;;;5167158;28;20030;-74
2023/04/16 03:06:06;;;;;;;24.67;22.88;;;20.30;99.90;;;;;;5167231;28;20518;-74
2023/04/16 03:08:37;;;;;;;24.27;22.48;;;20.30;99.90;;;;;;5167060;28;20027;-73
2023/04/16 03:11:08;;;;;;;25.42;23.27;;;20.30;99.90;;;;;;5166239;28;20370;-74
2023/04/16 03:13:39;;;;;;;24.58;22.77;;;20.20;99.90;;;;;;5166762;28;20037;-73
2023/04/16 03:16:10;;;;;;;23.40;21.50;;;20.20;99.90;;;;;;5166643;28;20044;-73
2023/04/16 03:18:41;;;;;;;22.02;20.42;;;20.20;99.90;;;;;;5165146;28;20466;-74
2023/04/16 03:21:12;;;;;;;21.20;19.70;;;20.20;99.90;;;;;;5166035;28;20041;-75
2023/04/16 03:23:43;;;;;;;23.75;21.85;;;20.10;99.90;;;;;;5165444;28;20026;-74
2023/04/16 03:26:13;;;;;;;22.63;21.02;;;20.10;99.90;;;;;;5160726;28;20107;-74
2023/04/16 03:28:44;;;;;;;27.45;25.50;;;20.10;99.90;;;;;;5146191;28;20103;-73
2023/04/16 03:31:15;;;;;;;28.80;26.77;;;20.10;99.90;;;;;;5145945;28;20049;-73
2023/04/16 03:33:46;;;;;;;21.50;19.92;;;20.10;99.90;;;;;;5153955;28;20038;-73
2023/04/16 03:36:17;;;;;;;22.88;21.15;;;20.10;99.90;;;;;;5165334;28;20042;-74
2023/04/16 03:38:49;;;;;;;21.92;20.30;;;20.10;99.90;;;;;;5165866;28;20536;-74
2023/04/16 03:41:20;;;;;;;22.23;20.48;;;20.10;99.90;;;;;;5165849;28;20038;-74
2023/04/16 03:43:50;;;;;;;22.52;20.92;;;20.10;99.90;;;;;;5165519;28;20027;-73
2023/04/16 03:46:21;;;;;;;21.20;19.80;;;20.10;99.90;;;;;;5165425;28;20081;-74
2023/04/16 03:48:52;;;;;;;21.50;19.90;;;20.00;99.90;;;;;;5165667;28;20425;-73
2023/04/16 03:51:23;;;;;;;22.13;20.60;;;20.00;99.90;;;;;;5162245;28;20104;-74
2023/04/16 03:53:54;;;;;;;23.48;21.60;;;20.00;99.90;;;;;;5166635;28;20529;-74
2023/04/16 03:56:25;;;;;;;19.95;18.48;;;20.00;99.90;;;;;;5164533;28;20379;-73
2023/04/16 03:58:56;;;;;;;20.83;19.33;;;20.00;99.90;;;;;;5165957;28;20057;-74
2023/04/16 04:01:27;;;;;;;23.10;21.40;;;20.00;99.90;;;;;;5176282;28;20025;-75
2023/04/16 04:03:58;;;;;;;21.10;19.40;;;20.00;99.90;;;;;;5186318;28;20034;-74
2023/04/16 04:06:29;;;;;;;22.67;20.98;;;19.90;99.90;;;;;;5169268;28;20034;-75
2023/04/16 04:09:00;;;;;;;22.48;20.98;;;20.00;99.90;;;;;;5165862;28;20031;-75
2023/04/16 04:11:31;;;;;;;22.83;21.13;;;19.90;99.90;;;;;;5165778;28;20059;-74
2023/04/16 04:14:04;;;;;;;22.02;20.52;;;20.00;99.90;;;;;;5165820;28;20026;-75
2023/04/16 04:16:34;;;;;;;21.85;20.35;;;20.00;99.90;;;;;;5163866;28;20397;-74
2023/04/16 04:19:05;;;;;;;22.00;20.50;;;19.90;99.90;;;;;;5165410;28;20026;-74
2023/04/16 04:21:36;;;;;;;22.52;21.02;;;19.90;99.90;;;;;;5163802;28;20034;-75
2023/04/16 04:24:07;;;;;;;22.52;20.92;;;20.20;99.90;;;;;;5165548;28;20022;-76
2023/04/16 04:26:38;;;;;;;23.23;21.63;;;20.40;99.90;;;;;;5165139;28;20494;-73
2023/04/16 04:29:09;;;;;;;22.08;20.65;;;20.50;99.90;;;;;;5164841;28;20061;-73
2023/04/16 04:31:40;;;;;;;22.30;20.80;;;20.30;99.90;;;;;;5164939;28;20050;-73
2023/04/16 04:34:11;;;;;;;22.02;20.45;;;20.30;99.90;;;;;;5164234;28;20117;-74
2023/04/16 04:36:41;;;;;;;22.50;20.90;;;20.20;99.90;;;;;;5164262;28;20129;-73
2023/04/16 04:39:12;;;;;;;22.48;20.98;;;20.30;99.90;;;;;;5164238;28;20030;-74
2023/04/16 04:41:43;;;;;;;20.65;19.25;;;20.30;99.90;;;;;;5163725;28;20035;-74
2023/04/16 04:44:14;;;;;;;22.08;20.63;;;20.20;99.90;;;;;;5161253;28;20019;-74
2023/04/16 04:46:45;;;;;;;22.08;20.48;;;20.20;99.90;;;;;;5160160;28;20037;-74
2023/04/16 04:49:16;;;;;;;21.67;20.08;;;20.10;99.90;;;;;;5164586;28;20026;-75
2023/04/16 04:51:47;;;;;;;22.75;21.20;;;20.20;99.90;;;;;;5159915;28;20047;-74
2023/04/16 04:54:18;;;;;;;21.60;19.98;;;20.20;99.90;;;;;;5164982;28;20504;-75
2023/04/16 04:56:51;;;;;;;20.95;19.45;;;20.30;99.90;;;;;;5164839;28;20035;-75
2023/04/16 04:59:22;;;;;;;22.63;21.05;;;20.30;99.90;;;;;;5156542;28;20091;-75
2023/04/16 05:01:53;;;;;;;21.58;20.08;;;20.30;99.90;;;;;;5164194;28;20505;-75
2023/04/16 05:04:24;;;;;;;22.35;20.83;;;20.30;99.90;;;;;;5164528;28;20105;-75
2023/04/16 05:06:55;;;;;;;22.67;21.15;;;20.30;99.90;;;;;;5164552;28;20034;-75
2023/04/16 05:09:25;;;;;;;22.35;20.75;;;20.30;99.90;;;;;;5164295;28;20569;-74
2023/04/16 05:11:56;;;;;;;20.35;18.92;;;20.30;99.90;;;;;;5163730;28;20105;-75
2023/04/16 05:14:27;;;;;;;22.38;20.77;;;20.20;99.90;;;;;;5164554;28;20018;-74
2023/04/16 05:16:58;;;;;;;23.58;22.00;;;20.30;99.90;;;;;;5164401;28;20049;-74
2023/04/16 05:19:29;;;;;;;22.80;21.30;;;20.20;99.90;;;;;;5164374;28;20097;-75
2023/04/16 05:22:01;;;;;;;21.75;20.33;;;20.30;99.90;;;;;;5161538;28;20042;-76
2023/04/16 05:24:32;;;;;;;22.27;20.77;;;20.20;99.90;;;;;;5164416;28;20489;-75
2023/04/16 05:27:02;;;;;;;24.42;22.83;;;20.20;99.90;;;;;;5164608;28;20015;-75
2023/04/16 05:29:33;;;;;;;24.23;22.73;;;20.20;99.90;;;;;;5156560;28;20027;-75
2023/04/16 05:32:04;;;;;;;22.77;21.27;;;20.30;99.90;;;;;;5162572;28;20050;-75
2023/04/16 05:34:35;;;;;;;23.05;21.55;;;20.30;99.90;;;;;;5165828;28;20034;-75
2023/04/16 05:37:06;;;;;;;25.20;23.60;;;20.40;99.90;;;;;;5168165;28;20046;-75
2023/04/16 05:39:37;;;;;;;24.92;23.33;;;20.40;99.90;;;;;;5168312;28;20072;-74
2023/04/16 05:42:08;;;;;;;22.38;20.88;;;20.40;99.90;;;;;;5159723;28;20131;-74
2023/04/16 05:44:39;;;;;;;24.02;22.42;;;20.40;99.90;;;;;;5167154;28;20796;-74
2023/04/16 05:47:10;;;;;;;22.77;21.27;;;20.40;99.90;;;;;;5165035;28;20129;-74
2023/04/16 05:49:41;;;;;;;23.08;21.52;;;20.40;99.90;;;;;;5167599;28;20149;-74
2023/04/16 05:52:12;;;;;;;23.25;21.75;;;20.40;99.90;;;;;;5166025;28;20062;-75
2023/04/16 05:54:43;;;;;;;23.35;21.73;;;20.40;99.90;;;;;;5166764;28;20023;-74
2023/04/16 05:57:13;;;;;;;24.00;22.42;;;20.40;99.90;;;;;;5167572;28;20038;-75
2023/04/16 05:59:44;;;;;;;23.48;21.70;;;20.40;99.90;;;;;;5162332;28;20073;-75
2023/04/16 06:02:15;;;;;;;25.35;23.55;;;20.40;99.90;;;;;;5160686;28;20035;-77
2023/04/16 06:04:46;;;;;;;24.25;22.65;;;20.40;99.90;;;;;;5178355;28;20164;-76
2023/04/16 06:07:17;;;;;;;23.55;22.00;;;20.50;99.90;;;;;;5164024;28;20038;-76
2023/04/16 06:09:48;;;;;;;23.20;21.67;;;20.50;99.90;;;;;;5161355;28;20188;-77
2023/04/16 06:12:18;;;;;;;24.55;22.88;;;20.50;99.90;;;;;;5171566;28;20035;-77
2023/04/16 06:14:49;;;;;;;23.98;22.48;;;20.60;99.90;;;;;;5167600;28;20026;-77
2023/04/16 06:17:20;;;;;;;23.15;21.45;;;20.70;99.90;;;;;;5166961;28;20046;-78
2023/04/16 06:19:51;;;;;;;23.95;22.35;;;20.80;99.90;;;;;;5165580;28;20030;-78
2023/04/16 06:22:23;;;;;;;24.13;22.50;;;20.80;99.90;;;;;;5166299;28;20513;-78
2023/04/16 06:24:54;;;;;;;23.60;22.10;;;20.90;99.90;;;;;;5167398;28;20019;-78
2023/04/16 06:27:25;;;;;;;23.42;21.80;;;20.90;99.90;;;;;;5167125;28;20494;-77
2023/04/16 06:29:57;;;;;;;23.02;21.42;;;20.90;99.90;;;;;;5167247;28;20053;-78
2023/04/16 06:32:28;;;;;;;23.25;21.73;;;21.00;99.90;;;;;;5169127;28;20088;-75
2023/04/16 06:34:59;;;;;;;23.92;22.25;;;21.00;99.90;;;;;;5166845;28;20448;-79
2023/04/16 06:37:30;;;;;;;24.58;22.88;;;21.00;99.90;;;;;;5166118;28;20103;-79
2023/04/16 06:40:01;;;;;;;23.33;21.55;;;21.00;99.90;;;;;;5166824;28;20033;-79
2023/04/16 06:42:32;;;;;;;22.77;21.27;;;21.00;99.90;;;;;;5167223;28;20030;-79
2023/04/16 06:45:03;;;;;;;23.00;21.50;;;21.10;99.90;;;;;;5157678;28;20025;-76
2023/04/16 06:47:34;;;;;;;24.15;22.48;;;21.10;99.90;;;;;;5166916;28;20030;-77
2023/04/16 06:50:06;;;;;;;23.90;22.27;;;21.10;99.90;;;;;;5166731;28;20080;-78
2023/04/16 06:52:37;;;;;;;23.10;21.60;;;21.10;99.90;;;;;;5166853;28;20047;-77
2023/04/16 06:55:09;;;;;;;22.60;21.02;;;21.10;99.90;;;;;;5161736;28;20053;-78
2023/04/16 06:57:40;;;;;;;22.05;20.52;;;21.10;99.90;;;;;;5166680;28;20057;-76
2023/04/16 07:00:11;;;;;;;21.85;20.17;;;21.10;99.90;;;;;;5167226;28;20038;-77
2023/04/16 07:02:42;;;;;;;22.77;21.08;;;21.20;99.90;;;;;;5166187;28;20534;-78
2023/04/16 07:05:13;;;;;;;21.98;20.23;;;21.20;99.90;;;;;;5164888;28;20027;-77
2023/04/16 07:07:44;;;;;;;21.40;20.00;;;21.20;99.90;;;;;;5166482;28;20085;-77
2023/04/16 07:10:14;;;;;;;21.20;19.67;;;21.20;99.90;;;;;;5166548;28;20112;-77
2023/04/16 07:12:45;;;;;;;20.48;18.98;;;21.20;99.90;;;;;;5166114;28;20105;-77
2023/04/16 07:15:17;;;;;;;18.98;17.67;;;21.20;99.90;;;;;;5158848;28;20030;-78
2023/04/16 07:17:47;;;;;;;19.58;17.98;;;21.20;99.90;;;;;;5165575;28;20049;-77
2023/04/16 07:20:18;;;;;;;19.98;18.45;;;21.30;99.90;;;;;;5166053;28;20026;-77
2023/04/16 07:22:49;;;;;;;19.30;18.00;;;21.30;99.90;;;;;;5166164;28;20026;-77
2023/04/16 07:25:20;;;;;;;18.52;17.23;;;21.40;99.90;;;;;;5166121;28;20019;-78
2023/04/16 07:27:51;;;;;;;18.98;17.58;;;21.30;99.90;;;;;;5165543;28;20018;-78
2023/04/16 07:30:22;;;;;;;19.25;17.70;;;21.40;99.90;;;;;;5166085;28;20512;-76
2023/04/16 07:32:54;;;;;;;18.67;17.17;;;21.40;99.90;;;;;;5164735;28;20026;-78
2023/04/16 07:35:25;;;;;;;18.83;17.40;;;21.40;99.90;;;;;;5166051;28;20513;-78
2023/04/16 07:37:56;;;;;;;19.20;17.70;;;21.40;99.90;;;;;;5163739;28;20037;-77
2023/04/16 07:40:27;;;;;;;17.45;16.25;;;21.50;99.90;;;;;;5157898;28;20019;-76
2023/04/16 07:42:58;;;;;;;18.02;16.65;;;21.50;99.90;;;;;;5165766;28;20037;-76
2023/04/16 07:45:28;;;;;;;17.83;16.65;;;21.50;99.90;;;;;;5165101;28;20023;-77
2023/04/16 07:48:00;;;;;;;18.30;16.92;;;21.60;99.90;;;;;;5165516;28;20034;-75
2023/04/16 07:50:30;;;;;;;18.15;16.77;;;21.70;99.90;;;;;;5165747;28;20058;-76
2023/04/16 07:53:01;;;;;;;16.13;15.05;;;21.80;99.90;;;;;;5165637;28;20403;-76
2023/04/16 07:55:32;;;;;;;17.17;15.88;;;21.80;99.90;;;;;;5164174;28;20022;-76
2023/04/16 07:58:05;;;;;;;16.27;15.18;;;21.80;99.90;;;;;;5163595;28;20030;-76
2023/04/16 08:00:36;;;;;;;16.05;14.95;;;21.80;99.90;;;;;;5163378;28;20031;-76
2023/04/16 08:03:07;;;;;;;15.63;14.45;;;21.80;99.90;;;;;;5165144;28;20033;-76
2023/04/16 08:05:38;;;;;;;15.23;14.07;;;21.90;99.90;;;;;;5165037;28;20034;-75
2023/04/16 08:08:09;;;;;;;16.00;14.65;;;21.90;99.90;;;;;;5162088;28;20030;-77
2023/04/16 08:10:39;;;;;;;15.57;14.48;;;22.00;99.90;;;;;;5165337;28;20034;-76
2023/04/16 08:13:10;;;;;;;15.55;14.45;;;22.10;99.90;;;;;;5164352;28;20544;-81
2023/04/16 08:15:42;;;;;;;15.52;14.43;;;22.10;99.90;;;;;;5163844;28;20037;-80
2023/04/16 08:18:14;;;;;;;15.38;14.10;;;22.10;99.90;;;;;;5165218;28;20026;-80
2023/04/16 08:20:45;;;;;;;15.35;14.25;;;22.10;99.90;;;;;;5163779;28;20034;-76
2023/04/16 08:23:16;;;;;;;13.82;12.77;;;22.10;99.90;;;;;;5165011;28;20022;-79
2023/04/16 08:25:47;;;;;;;14.77;13.68;;;22.20;99.90;;;;;;5157316;28;20034;-77
2023/04/16 08:28:18;;;;;;;15.02;13.85;;;22.20;99.90;;;;;;5155180;28;20037;-82
2023/04/16 08:30:49;;;;;;;16.10;14.80;;;22.20;99.90;;;;;;5166051;28;20057;-78
2023/04/16 08:33:20;;;;;;;15.07;13.98;;;22.20;99.90;;;;;;5165043;28;20019;-77
2023/04/16 08:35:51;;;;;;;14.35;13.35;;;22.30;99.90;;;;;;5164881;28;20070;-79
2023/04/16 08:38:22;;;;;;;15.05;13.95;;;22.40;99.90;;;;;;5163691;28;20104;-80
2023/04/16 08:40:55;;;;;;;15.23;14.02;;;22.40;99.90;;;;;;5164880;28;20098;-80
2023/04/16 08:43:27;;;;;;;16.00;15.00;;;22.30;99.90;;;;;;5156662;28;20022;-78
2023/04/16 08:45:58;;;;;;;15.48;14.23;;;22.30;99.90;;;;;;5164801;28;20031;-76
2023/04/16 08:48:32;;;;;;;14.30;13.30;;;22.30;99.90;;;;;;5163725;28;20041;-78
2023/04/16 08:51:08;;;;;;;14.57;13.48;;;22.30;99.90;;;;;;5164721;28;20046;-79
2023/04/16 08:54:03;;;;;;;15.43;14.32;;;22.30;99.90;;;;;;5164638;28;20030;-80
2023/04/16 08:56:36;;;;;;;13.88;12.63;;;22.30;99.90;;;;;;5164409;28;20371;-80
2023/04/16 08:59:08;;;;;;;13.50;12.50;;;22.40;99.90;;;;;;5163584;28;20033;-80
2023/04/16 09:01:40;;;;;;;16.00;14.82;;;22.40;99.90;;;;;;5168568;28;20026;-76
2023/04/16 09:04:14;;;;;;;14.50;13.35;;;22.50;99.90;;;;;;5163615;28;20149;-78
2023/04/16 09:06:47;;;;;;;14.30;13.25;;;22.20;99.90;;;;;;5164117;28;20096;-78
2023/04/16 09:09:20;;;;;;;15.20;13.75;;;22.30;99.90;;;;;;5167546;28;20026;-77
2023/04/16 09:11:51;;;;;;;15.55;14.15;;;22.30;99.90;;;;;;5184794;28;20033;-76
2023/04/16 09:14:22;;;;;;;16.48;15.07;;;22.20;99.90;;;;;;5170106;28;20053;-76
2023/04/16 09:16:54;;;;;;;16.08;14.57;;;22.10;99.90;;;;;;5170932;28;20089;-78
2023/04/16 09:19:27;;;;;;;17.00;15.43;;;22.10;99.90;;;;;;5167765;28;20492;-79
2023/04/16 09:21:58;;;;;;;17.00;15.43;;;22.10;99.90;;;;;;5162778;28;20034;-77
2023/04/16 09:24:30;;;;;;;15.82;14.32;;;22.20;99.90;;;;;;5166713;28;20878;-77
2023/04/16 09:27:02;;;;;;;17.42;15.25;;;22.20;99.90;;;;;;5166944;28;20034;-78
2023/04/16 09:29:37;;;;;;;16.00;14.60;;;22.20;99.90;;;;;;5168800;28;20386;-80
2023/04/16 09:32:09;;;;;;;18.10;16.50;;;22.20;99.90;;;;;;5168537;28;20478;-79
2023/04/16 09:34:57;;;;;;;17.80;16.10;;;22.20;99.90;;;;;;5168334;28;20414;-79
2023/04/16 09:37:29;;;;;;;17.88;16.27;;;22.30;99.90;;;;;;5168183;28;20034;-78
2023/04/16 09:40:02;;;;;;;18.25;16.35;;;22.30;99.90;;;;;;5166966;28;20027;-76
2023/04/16 09:42:35;;;;;;;19.40;14.98;;;22.40;99.90;;;;;;5173373;28;20529;-77
2023/04/16 09:45:07;;;;;;;16.50;14.88;;;22.50;99.90;;;;;;5168048;28;20069;-77
2023/04/16 09:47:43;;;;;;;15.57;14.18;;;22.40;99.90;;;;;;5168251;28;20429;-77
2023/04/16 09:50:16;;;;;;;16.52;14.93;;;22.40;99.90;;;;;;5166663;28;20049;-78
2023/04/16 09:52:50;;;;;;;16.73;15.00;;;22.40;99.90;;;;;;5165838;28;20049;-76
2023/04/16 09:55:27;;;;;;;23.13;14.82;;;22.30;99.90;;;;;;5170977;28;20042;-79
2023/04/16 09:58:00;;;;;;;18.50;14.90;;;22.30;99.90;;;;;;5167610;28;20038;-78
2023/04/16 10:00:31;;;;;;;22.90;14.70;;;22.30;99.90;;;;;;5164922;28;20364;-80
2023/04/16 10:03:04;;;;;;;19.15;13.88;;;22.30;99.90;;;;;;5167145;28;20081;-80
2023/04/16 10:05:38;;;;;;;17.55;15.77;;;22.40;99.90;;;;;;5167247;28;20065;-80
2023/04/16 10:08:13;;;;;;;15.18;13.55;;;22.40;99.90;;;;;;5168882;28;20034;-80
2023/04/16 10:10:44;;;;;;;17.17;15.18;;;22.40;99.90;;;;;;5172063;28;20031;-76
2023/04/16 10:13:16;;;;;;;18.10;16.20;;;22.30;99.90;;;;;;5166188;28;20034;-79
2023/04/16 10:15:48;;;;;;;15.30;13.90;;;22.40;99.90;;;;;;5167400;28;20026;-79
2023/04/16 10:18:19;;;;;;;14.45;13.02;;;22.40;99.90;;;;;;5167553;28;20092;-78
2023/04/16 10:20:52;;;;;;;17.00;15.23;;;22.40;99.90;;;;;;5166578;28;20536;-80
2023/04/16 10:23:23;;;;;;;16.83;15.32;;;22.30;99.90;;;;;;5171254;28;20029;-77
2023/04/16 10:25:57;;;;;;;15.48;14.07;;;22.20;99.90;;;;;;5165261;28;20037;-79
2023/04/16 10:28:28;;;;;;;15.07;13.60;;;22.20;99.90;;;;;;5167647;28;20043;-82
2023/04/16 10:31:01;;;;;;;14.85;13.55;;;22.30;99.90;;;;;;5152083;28;20045;-81
2023/04/16 10:33:43;;;;;;;15.27;13.85;;;22.30;99.90;;;;;;5157534;28;20393;-79
2023/04/16 10:36:16;;;;;;;16.48;15.00;;;22.40;99.90;;;;;;5157903;28;20037;-81
2023/04/16 10:38:53;;;;;;;17.83;16.30;;;22.40;99.90;;;;;;5158520;28;20474;-78
2023/04/16 10:41:25;;;;;;;19.75;18.15;;;22.40;99.90;;;;;;5119399;28;20065;-71
2023/04/16 10:44:08;;;;;;;20.55;18.83;;;22.70;90.70;;;;;;5166914;28;20031;-73
2023/04/16 10:46:41;;;;;;;18.95;17.35;;;23.10;90.00;;;;;;5148713;28;20524;-73
2023/04/16 10:49:14;;;;;;;17.23;15.50;;;23.60;91.30;;;;;;5166697;28;20109;-73
2023/04/16 10:52:01;;;;;;;15.75;14.45;;;23.60;87.00;;;;;;5166104;28;20046;-72
2023/04/16 10:54:34;;;;;;;17.58;16.15;;;23.00;89.30;;;;;;5158646;28;20032;-73
2023/04/16 10:57:13;;;;;;;18.25;16.67;;;23.00;87.20;;;;;;5148995;28;20084;-73
2023/04/16 10:59:47;;;;;;;19.42;17.80;;;22.90;86.90;;;;;;5142370;28;20030;-73
2023/04/16 11:02:18;;;;;;;16.77;15.30;;;22.90;86.30;;;;;;5163875;28;20113;-72
2023/04/16 11:04:49;;;;;;;17.23;15.73;;;22.60;85.00;;;;;;5148215;28;20613;-73
2023/04/16 11:07:31;;;;;;;19.10;17.55;;;22.90;85.90;;;;;;5165481;28;20041;-73
2023/04/16 11:10:04;;;;;;;18.25;16.65;;;22.50;88.30;;;;;;5148761;28;20018;-73
2023/04/16 11:12:38;;;;;;;18.00;16.45;;;22.90;86.10;;;;;;5166365;28;20022;-73
2023/04/16 11:15:11;;;;;;;17.33;15.55;;;22.90;87.20;;;;;;4982178;28;20042;-73
2023/04/16 11:17:52;;;;;;;18.75;17.10;;;22.90;86.10;;;;;;5060383;28;20043;-73
2023/04/16 11:20:25;;;;;;;18.00;16.30;;;23.20;86.00;;;;;;5153906;28;20119;-72
2023/04/16 11:22:57;;;;;;;18.17;16.52;;;22.70;86.30;;;;;;5154906;28;20026;-72
2023/04/16 11:25:30;;;;;;;18.15;16.38;;;23.00;86.40;;;;;;5153625;28;20093;-73
2023/04/16 11:28:01;;;;;;;18.92;17.15;;;22.60;87.90;;;;;;5163095;28;20101;-72
2023/04/16 11:30:37;;;;;;;18.95;17.40;;;23.10;88.30;;;;;;5180070;28;20061;-73
2023/04/16 11:33:10;;;;;;;20.42;18.50;;;22.80;87.90;;;;;;5163929;28;20027;-74
2023/04/16 11:35:42;;;;;;;19.77;17.80;;;23.00;87.90;;;;;;5162082;28;20015;-73
2023/04/16 11:38:13;;;;;;;18.95;17.08;;;22.90;84.60;;;;;;5165445;28;20369;-73
2023/04/16 11:40:43;;;;;;;21.73;16.20;;;23.00;87.10;;;;;;5164201;28;20033;-73
2023/04/16 11:43:16;;;;;;;18.92;17.20;;;23.00;85.30;;;;;;5165248;28;20034;-73
2023/04/16 11:46:04;;;;;;;18.38;16.20;;;22.90;84.60;;;;;;5164687;28;20121;-73
2023/04/16 11:48:49;;;;;;;17.08;15.38;;;22.80;86.40;;;;;;5160109;28;20030;-73
2023/04/16 11:51:22;;;;;;;18.70;16.42;;;23.10;86.60;;;;;;5153837;28;20062;-73
2023/04/16 11:53:53;;;;;;;18.95;15.43;;;23.00;84.00;;;;;;5158517;28;20034;-73
2023/04/16 11:56:29;;;;;;;17.67;15.98;;;23.20;85.70;;;;;;5154133;28;20129;-72
2023/04/16 11:59:21;;;;;;;16.98;15.18;;;23.40;85.30;;;;;;5154271;28;20027;-73
2023/04/16 12:01:56;;;;;;;17.67;15.38;;;23.50;84.20;;;;;;5158023;28;20406;-72
2023/04/16 12:04:28;;;;;;;16.75;15.23;;;23.50;84.20;;;;;;5159200;28;20022;-74
2023/04/16 12:07:13;;;;;;;17.98;15.43;;;23.60;84.80;;;;;;5159870;28;20485;-73
2023/04/16 12:09:45;;;;;;;18.05;16.38;;;23.10;85.10;;;;;;5156374;28;20026;-73
2023/04/16 12:12:31;;;;;;;19.58;17.33;;;23.10;86.10;;;;;;5155496;28;20026;-74
2023/04/16 12:15:02;;;;;;;28.08;15.50;;;23.20;84.80;;;;;;5154780;28;20022;-73
2023/04/16 12:17:35;;;;;;;20.48;14.77;;;23.70;84.60;;;;;;5154480;28;20097;-73
2023/04/16 12:20:15;;;;;;;17.83;16.05;;;23.30;82.90;;;;;;5151986;28;20062;-73
2023/04/16 12:22:55;;;;;;;18.20;16.48;;;23.30;83.20;;;;;;5157196;28;20022;-73
2023/04/16 12:25:27;;;;;;;25.92;16.30;;;23.60;82.50;;;;;;5154477;28;20066;-73
2023/04/16 12:27:58;;;;;;;17.40;15.70;;;23.10;83.80;;;;;;5157855;28;20033;-72
2023/04/16 12:30:30;;;;;;;18.23;16.58;;;23.10;84.10;;;;;;5158916;28;20026;-74
2023/04/16 12:33:15;;;;;;;20.38;18.50;;;22.70;83.80;;;;;;5155307;28;20018;-73
2023/04/16 12:35:46;;;;;;;20.55;18.88;;;22.80;84.20;;;;;;5157225;28;20038;-73
2023/04/16 12:38:21;;;;;;;20.40;18.67;;;22.50;85.50;;;;;;5154731;28;20022;-74
2023/04/16 12:40:55;;;;;;;26.30;21.13;;;22.40;85.40;;;;;;5160536;28;20022;-73
2023/04/16 12:43:27;;;;;;;23.63;21.23;;;22.40;87.40;;;;;;5156839;28;20031;-73
2023/04/16 12:46:00;;;;;;;22.85;21.05;;;22.20;86.10;;;;;;5026180;28;20059;-73
2023/04/16 12:48:32;;;;;;;25.10;22.52;;;22.20;86.70;;;;;;5067001;28;20103;-74
2023/04/16 12:51:03;;;;;;;20.48;18.67;;;22.20;88.40;;;;;;5153966;28;20101;-74
2023/04/16 12:53:34;;;;;;;20.15;18.02;;;22.20;87.90;;;;;;5135967;28;20039;-73